Tiger Wave — 9V8790 — position and weather

sailwx.info

Track history (hours):
 
Tides and Currents Weather Stations Pressure Air Temp Water Temp Dewpoint Dewpoint Depression Visibility Wind Speed Wind Dir Waves Ship Positions

Tiger Wave

Last reported at 2017-Aug-13 10:36 UTC. Time now 2017-Aug-17 17:26 UTC.
Position N 01°18' E 103°21'.

Length 150 m; draft 7.6 m.

Type: Ship (hazmat cat A). MMSI: 564211000.

Date/timePositionNaut miles runAvg speedWind from/ knotsBaromVisibWave heightAir tempDewpointWater temp
2017-Aug-13 10:36N 01°18' E 103°21'513.5
2017-Aug-13 10:13N 01°14' E 103°25'312.6
2017-Aug-13 09:59N 01°13' E 103°27'612.6
2017-Aug-13 09:30N 01°12' E 103°33'612.1
2017-Aug-13 08:59N 01°11' E 103°39'612.2
2017-Aug-13 08:30N 01°09' E 103°45'612.4
2017-Aug-13 07:59N 01°12' E 103°51'3 6.3
2017-Aug-13 07:30N 01°14' E 103°52'2 3.6
2017-Aug-13 06:50N 01°16' E 103°50'0 0.0
2017-Aug-13 06:29N 01°16' E 103°50'0 0.0
2017-Aug-13 05:55N 01°16' E 103°50'0 0.0
2017-Aug-13 05:28N 01°16' E 103°50'0 0.0
2017-Aug-13 04:58N 01°16' E 103°50'0 0.0
2017-Aug-13 04:25N 01°16' E 103°50'0 0.0
2017-Aug-13 04:00N 01°16' E 103°50'0 0.0
2017-Aug-13 03:30N 01°16' E 103°50'0 0.0
2017-Aug-13 03:00N 01°16' E 103°50'0 0.0
2017-Aug-13 02:30N 01°16' E 103°50'0 0.0
2017-Aug-13 02:00N 01°16' E 103°50'0 0.0
2017-Aug-13 01:29N 01°16' E 103°50'0 0.0
2017-Aug-13 00:59N 01°16' E 103°50'0 0.0
2017-Aug-13 00:29N 01°16' E 103°50'0 0.0
2017-Aug-12 23:59N 01°16' E 103°50'0 0.0
2017-Aug-12 23:29N 01°16' E 103°50'0 0.0
2017-Aug-12 22:55N 01°16' E 103°50'0 0.0
2017-Aug-12 22:28N 01°16' E 103°50'0 0.0
2017-Aug-12 21:55N 01°16' E 103°50'0 0.0
2017-Aug-12 21:25N 01°16' E 103°50'0 0.0
2017-Aug-12 21:01N 01°16' E 103°50'0 0.0
2017-Aug-12 20:30N 01°16' E 103°50'0 0.0
2017-Aug-12 19:57N 01°16' E 103°50'0 0.0
2017-Aug-12 19:21N 01°16' E 103°50'0 0.0
2017-Aug-12 18:57N 01°16' E 103°50'0 0.0
2017-Aug-12 18:28N 01°16' E 103°50'0 0.0
2017-Aug-12 17:59N 01°16' E 103°50'0 0.0
2017-Aug-12 17:26N 01°16' E 103°50'0 0.0
2017-Aug-12 16:59N 01°16' E 103°50'0 0.0
2017-Aug-12 16:29N 01°16' E 103°50'0 0.0
2017-Aug-12 15:55N 01°16' E 103°50'0 0.0
2017-Aug-12 15:28N 01°16' E 103°50'0 0.0
2017-Aug-12 14:58N 01°16' E 103°50'0 0.0
2017-Aug-12 14:28N 01°16' E 103°50'0 0.1
2017-Aug-12 14:01N 01°16' E 103°50'0 0.0
2017-Aug-12 13:27N 01°16' E 103°50'0 0.0
2017-Aug-12 13:00N 01°16' E 103°50'0 0.0
2017-Aug-12 12:30N 01°16' E 103°50'0 0.0
2017-Aug-12 12:00N 01°16' E 103°50'1 2.5
2017-Aug-12 11:30N 01°16' E 103°51'2 3.3
2017-Aug-12 11:00N 01°15' E 103°52'1 1.9
2017-Aug-12 10:30N 01°14' E 103°53'1 1.6
2017-Aug-12 10:00N 01°13' E 103°54'1 2.5
2017-Aug-12 09:30N 01°12' E 103°53'2 4.9
2017-Aug-12 09:00N 01°11' E 103°51'2 4.6
2017-Aug-12 08:30N 01°10' E 103°49'2 4.6
2017-Aug-12 08:00N 01°09' E 103°47'2 4.8
2017-Aug-12 07:30N 01°07' E 103°45'3 5.0
2017-Aug-12 07:00N 01°05' E 103°44'3 5.6
2017-Aug-12 06:30N 01°04' E 103°42'3 5.8
2017-Aug-12 06:00N 01°02' E 103°39'3 6.1
2017-Aug-12 05:30N 01°04' E 103°36'3 6.2
2017-Aug-12 05:00N 01°06' E 103°34'3 6.7
2017-Aug-12 04:30N 01°07' E 103°31'510.9
2017-Aug-12 04:00N 01°10' E 103°26'611.9
2017-Aug-12 03:29N 01°14' E 103°21'  
Track history (hours):
 
Tides and Currents Weather Stations Pressure Air Temp Water Temp Dewpoint Dewpoint Depression Visibility Wind Speed Wind Dir Waves Ship Positions

Tiger Wave

Last reported at 2017-Aug-13 10:36 UTC. Time now 2017-Aug-17 17:26 UTC.
Position N 01°18' E 103°21'.

Length 150 m; draft 7.6 m.

Type: Ship (hazmat cat A). MMSI: 564211000.

Date/timePositionNaut miles runAvg speedWind from/ knotsBaromVisibWave heightAir tempDewpointWater temp
2017-Aug-13 10:36N 01°18' E 103°21'513.5
2017-Aug-13 10:13N 01°14' E 103°25'312.6
2017-Aug-13 09:59N 01°13' E 103°27'612.6
2017-Aug-13 09:30N 01°12' E 103°33'612.1
2017-Aug-13 08:59N 01°11' E 103°39'612.2
2017-Aug-13 08:30N 01°09' E 103°45'612.4
2017-Aug-13 07:59N 01°12' E 103°51'3 6.3
2017-Aug-13 07:30N 01°14' E 103°52'2 3.6
2017-Aug-13 06:50N 01°16' E 103°50'0 0.0
2017-Aug-13 06:29N 01°16' E 103°50'0 0.0
2017-Aug-13 05:55N 01°16' E 103°50'0 0.0
2017-Aug-13 05:28N 01°16' E 103°50'0 0.0
2017-Aug-13 04:58N 01°16' E 103°50'0 0.0
2017-Aug-13 04:25N 01°16' E 103°50'0 0.0
2017-Aug-13 04:00N 01°16' E 103°50'0 0.0
2017-Aug-13 03:30N 01°16' E 103°50'0 0.0
2017-Aug-13 03:00N 01°16' E 103°50'0 0.0
2017-Aug-13 02:30N 01°16' E 103°50'0 0.0
2017-Aug-13 02:00N 01°16' E 103°50'0 0.0
2017-Aug-13 01:29N 01°16' E 103°50'0 0.0
2017-Aug-13 00:59N 01°16' E 103°50'0 0.0
2017-Aug-13 00:29N 01°16' E 103°50'0 0.0
2017-Aug-12 23:59N 01°16' E 103°50'0 0.0
2017-Aug-12 23:29N 01°16' E 103°50'0 0.0
2017-Aug-12 22:55N 01°16' E 103°50'0 0.0
2017-Aug-12 22:28N 01°16' E 103°50'0 0.0
2017-Aug-12 21:55N 01°16' E 103°50'0 0.0
2017-Aug-12 21:25N 01°16' E 103°50'0 0.0
2017-Aug-12 21:01N 01°16' E 103°50'0 0.0
2017-Aug-12 20:30N 01°16' E 103°50'0 0.0
2017-Aug-12 19:57N 01°16' E 103°50'0 0.0
2017-Aug-12 19:21N 01°16' E 103°50'0 0.0
2017-Aug-12 18:57N 01°16' E 103°50'0 0.0
2017-Aug-12 18:28N 01°16' E 103°50'0 0.0
2017-Aug-12 17:59N 01°16' E 103°50'0 0.0
2017-Aug-12 17:26N 01°16' E 103°50'0 0.0
2017-Aug-12 16:59N 01°16' E 103°50'0 0.0
2017-Aug-12 16:29N 01°16' E 103°50'0 0.0
2017-Aug-12 15:55N 01°16' E 103°50'0 0.0
2017-Aug-12 15:28N 01°16' E 103°50'0 0.0
2017-Aug-12 14:58N 01°16' E 103°50'0 0.0
2017-Aug-12 14:28N 01°16' E 103°50'0 0.1
2017-Aug-12 14:01N 01°16' E 103°50'0 0.0
2017-Aug-12 13:27N 01°16' E 103°50'0 0.0
2017-Aug-12 13:00N 01°16' E 103°50'0 0.0
2017-Aug-12 12:30N 01°16' E 103°50'0 0.0
2017-Aug-12 12:00N 01°16' E 103°50'1 2.5
2017-Aug-12 11:30N 01°16' E 103°51'2 3.3
2017-Aug-12 11:00N 01°15' E 103°52'1 1.9
2017-Aug-12 10:30N 01°14' E 103°53'1 1.6
2017-Aug-12 10:00N 01°13' E 103°54'1 2.5
2017-Aug-12 09:30N 01°12' E 103°53'2 4.9
2017-Aug-12 09:00N 01°11' E 103°51'2 4.6
2017-Aug-12 08:30N 01°10' E 103°49'2 4.6
2017-Aug-12 08:00N 01°09' E 103°47'2 4.8
2017-Aug-12 07:30N 01°07' E 103°45'3 5.0
2017-Aug-12 07:00N 01°05' E 103°44'3 5.6
2017-Aug-12 06:30N 01°04' E 103°42'3 5.8
2017-Aug-12 06:00N 01°02' E 103°39'3 6.1
2017-Aug-12 05:30N 01°04' E 103°36'3 6.2
2017-Aug-12 05:00N 01°06' E 103°34'3 6.7
2017-Aug-12 04:30N 01°07' E 103°31'510.9
2017-Aug-12 04:00N 01°10' E 103°26'611.9
2017-Aug-12 03:29N 01°14' E 103°21'  

Dump ship's entire track history